createdAt,value
2023-02-01T00:03:59.882Z,25.29296875
2023-02-01T00:13:59.738Z,26.0009765625
2023-02-01T00:23:59.806Z,26.1962890625
2023-02-01T00:33:59.639Z,28.1982421875
2023-02-01T00:43:59.740Z,26.4892578125
2023-02-01T00:53:59.445Z,26.708984375
2023-02-01T01:03:59.510Z,27.7099609375
2023-02-01T01:13:59.304Z,27.8076171875
2023-02-01T01:23:59.266Z,27.392578125
2023-02-01T01:33:59.185Z,27.197265625
2023-02-01T01:43:59.132Z,26.611328125
2023-02-01T01:53:59.052Z,25.8056640625
2023-02-01T02:03:58.953Z,25.1953125
2023-02-01T02:13:59.225Z,24.49951171875
2023-02-01T02:23:58.950Z,24.69482421875
2023-02-01T02:33:58.866Z,23.59619140625
2023-02-01T02:43:58.800Z,24.40185546875
2023-02-01T02:53:58.636Z,25.29296875
2023-02-01T03:03:58.560Z,24.1943359375
2023-02-01T03:13:58.751Z,24.0966796875
2023-02-01T03:23:58.665Z,24.1943359375
2023-02-01T03:33:58.306Z,23.30322265625
2023-02-01T03:43:58.251Z,22.900390625
2023-02-01T03:53:58.207Z,22.900390625
2023-02-01T04:03:58.104Z,22.705078125
2023-02-01T04:13:58.119Z,22.0947265625
2023-02-01T04:23:58.248Z,21.20361328125
2023-02-01T04:33:58.177Z,21.10595703125
2023-02-01T04:43:57.856Z,20.703125
2023-02-01T04:53:57.753Z,20.99609375
2023-02-01T05:03:57.683Z,21.10595703125
2023-02-01T05:13:57.619Z,21.10595703125
2023-02-01T05:23:57.580Z,20.8984375
2023-02-01T05:33:57.462Z,21.20361328125
2023-02-01T05:43:57.444Z,20.8984375
2023-02-01T05:53:57.417Z,20.703125
2023-02-01T06:03:57.740Z,20.703125
2023-02-01T06:13:57.175Z,20.80078125
2023-02-01T06:23:57.194Z,20.80078125
2023-02-01T06:33:57.064Z,20.60546875
2023-02-01T06:43:56.969Z,20.49560546875
2023-02-01T06:53:56.897Z,20.30029296875
2023-02-01T07:03:56.819Z,20.20263671875
2023-02-01T07:13:56.790Z,20.10498046875
2023-02-01T07:23:56.802Z,19.7998046875
2023-02-01T07:33:56.611Z,19.7998046875
2023-02-01T07:43:56.601Z,19.9951171875
2023-02-01T07:53:56.581Z,19.8974609375
2023-02-01T08:03:56.451Z,19.7021484375
2023-02-01T08:13:56.376Z,19.7021484375
2023-02-01T08:23:56.284Z,19.49462890625
2023-02-01T08:33:56.195Z,19.20166015625
2023-02-01T08:43:56.122Z,19.49462890625
2023-02-01T08:53:56.068Z,19.20166015625
2023-02-01T09:03:56.080Z,19.10400390625
2023-02-01T09:13:55.907Z,18.994140625
2023-02-01T09:23:55.832Z,18.994140625
2023-02-01T09:33:55.791Z,18.896484375
2023-02-01T09:43:55.682Z,18.798828125
2023-02-01T09:53:55.763Z,18.798828125
2023-02-01T10:03:55.617Z,19.20166015625
2023-02-01T10:13:55.658Z,19.49462890625
2023-02-01T10:23:57.368Z,19.8974609375
2023-02-01T10:33:55.411Z,19.8974609375
2023-02-01T10:43:55.327Z,19.7998046875
2023-02-01T10:53:55.259Z,19.7021484375
2023-02-01T11:03:55.149Z,20.10498046875
2023-02-01T11:13:55.116Z,20.49560546875
2023-02-01T11:23:55.070Z,20.49560546875
2023-02-01T11:33:54.911Z,20.39794921875
2023-02-01T11:43:54.825Z,20.49560546875
2023-02-01T11:53:54.785Z,20.60546875
2023-02-01T12:03:54.828Z,20.20263671875
2023-02-01T12:13:54.604Z,20.39794921875
2023-02-01T12:23:54.575Z,20.49560546875
2023-02-01T12:33:54.605Z,20.49560546875
2023-02-01T12:43:54.451Z,20.30029296875
2023-02-01T12:53:54.430Z,20.60546875
2023-02-01T13:03:54.280Z,20.703125
2023-02-01T13:13:54.246Z,20.703125
2023-02-01T13:23:54.133Z,20.80078125
2023-02-01T13:33:56.437Z,20.30029296875
2023-02-01T13:43:54.065Z,20.60546875
2023-02-01T13:53:53.891Z,20.30029296875
2023-02-01T14:03:53.829Z,20.10498046875
2023-02-01T14:13:53.751Z,20.10498046875
2023-02-01T14:23:53.742Z,20.30029296875
2023-02-01T14:33:53.709Z,20.20263671875
2023-02-01T14:43:53.575Z,20.20263671875
2023-02-01T14:53:53.575Z,19.9951171875
2023-02-01T15:03:53.427Z,20.10498046875
2023-02-01T15:13:53.856Z,20.20263671875
2023-02-01T15:23:53.283Z,20.10498046875
2023-02-01T15:33:53.349Z,19.9951171875
2023-02-01T15:43:53.176Z,19.9951171875
2023-02-01T15:53:53.078Z,20.10498046875
2023-02-01T16:03:53.023Z,19.9951171875
2023-02-01T16:13:52.944Z,19.9951171875
2023-02-01T16:23:52.955Z,19.9951171875
2023-02-01T16:33:52.775Z,20.10498046875
2023-02-01T16:43:52.720Z,20.39794921875
2023-02-01T16:53:54.799Z,20.49560546875
2023-02-01T17:03:52.678Z,20.30029296875
2023-02-01T17:13:52.599Z,20.30029296875
2023-02-01T17:23:52.431Z,20.30029296875
2023-02-01T17:33:52.474Z,20.20263671875
2023-02-01T17:43:52.273Z,20.30029296875
2023-02-01T17:53:52.224Z,20.30029296875
2023-02-01T18:03:52.154Z,20.39794921875
2023-02-01T18:13:52.100Z,20.39794921875
2023-02-01T18:23:52.042Z,20.60546875
2023-02-01T18:33:51.955Z,20.703125
2023-02-01T18:43:51.879Z,20.703125
2023-02-01T18:53:51.811Z,20.60546875
2023-02-01T19:03:58.284Z,20.80078125
2023-02-01T19:13:51.672Z,20.80078125
2023-02-01T19:23:51.673Z,20.8984375
2023-02-01T19:33:51.527Z,21.20361328125
2023-02-01T19:43:51.522Z,21.20361328125
2023-02-01T19:53:51.370Z,21.30126953125
2023-02-01T20:03:50.474Z,21.20361328125
2023-02-01T20:13:50.760Z,21.39892578125
2023-02-01T20:23:50.356Z,21.49658203125
2023-02-01T20:33:51.103Z,21.59423828125
2023-02-01T20:43:51.048Z,21.8017578125
2023-02-01T20:53:50.952Z,21.8017578125
2023-02-01T21:03:50.874Z,21.8017578125
2023-02-01T21:13:50.935Z,21.8994140625
2023-02-01T21:23:50.768Z,22.0947265625
2023-02-01T21:33:50.718Z,22.39990234375
2023-02-01T21:43:50.646Z,22.39990234375
2023-02-01T21:53:50.534Z,22.49755859375
2023-02-01T22:03:50.518Z,22.900390625
2023-02-01T22:13:50.386Z,23.30322265625
2023-02-01T22:23:50.461Z,24.0966796875
2023-02-01T22:33:50.348Z,24.90234375
2023-02-01T22:43:50.185Z,23.7060546875
2023-02-01T22:53:50.099Z,23.59619140625
2023-02-01T23:03:50.005Z,24.69482421875
2023-02-01T23:13:50.019Z,24.90234375
2023-02-01T23:23:50.128Z,24.90234375
2023-02-01T23:33:49.816Z,24.49951171875
2023-02-01T23:43:49.752Z,25.9033203125
2023-02-01T23:53:49.638Z,25.1953125
